createdAt,value
2023-05-01T00:02:27.574Z,100.00
2023-05-01T00:04:54.871Z,100.00
2023-05-01T00:07:22.086Z,100.00
2023-05-01T00:09:49.351Z,100.00
2023-05-01T00:12:16.536Z,100.00
2023-05-01T00:14:43.754Z,100.00
2023-05-01T00:17:10.846Z,100.00
2023-05-01T00:19:38.017Z,100.00
2023-05-01T00:22:05.099Z,100.00
2023-05-01T00:24:32.307Z,100.00
2023-05-01T00:26:59.594Z,100.00
2023-05-01T00:29:26.742Z,100.00
2023-05-01T00:31:55.342Z,100.00
2023-05-01T00:34:22.736Z,100.00
2023-05-01T00:36:50.091Z,100.00
2023-05-01T00:39:17.558Z,100.00
2023-05-01T00:41:44.672Z,100.00
2023-05-01T00:44:12.171Z,100.00
2023-05-01T00:46:39.401Z,100.00
2023-05-01T00:49:06.670Z,100.00
2023-05-01T00:51:34.435Z,100.00
2023-05-01T00:54:02.178Z,100.00
2023-05-01T00:56:31.543Z,100.00
2023-05-01T00:59:00.017Z,100.00
2023-05-01T01:01:27.224Z,100.00
2023-05-01T01:03:57.545Z,100.00
2023-05-01T01:06:51.569Z,100.00
2023-05-01T01:09:44.363Z,100.00
2023-05-01T01:12:28.128Z,100.00
2023-05-01T01:15:02.779Z,100.00
2023-05-01T01:17:47.187Z,100.00
2023-05-01T01:20:33.196Z,100.00
2023-05-01T01:23:27.923Z,100.00
2023-05-01T01:26:04.010Z,100.00
2023-05-01T01:29:05.212Z,100.00
2023-05-01T01:31:56.499Z,100.00
2023-05-01T01:34:33.361Z,100.00
2023-05-01T01:37:15.461Z,100.00
2023-05-01T01:39:45.165Z,100.00
2023-05-01T01:42:18.718Z,100.00
2023-05-01T01:44:55.213Z,100.00
2023-05-01T01:47:28.678Z,100.00
2023-05-01T01:49:57.535Z,100.00
2023-05-01T01:52:26.909Z,100.00
2023-05-01T01:55:02.150Z,100.00
2023-05-01T01:57:30.428Z,100.00
2023-05-01T01:59:58.756Z,100.00
2023-05-01T02:02:28.007Z,100.00
2023-05-01T02:05:02.761Z,100.00
2023-05-01T02:07:31.146Z,100.00
2023-05-01T02:09:59.730Z,100.00
2023-05-01T02:12:27.649Z,100.00
2023-05-01T02:14:56.672Z,100.00
2023-05-01T02:17:24.530Z,100.00
2023-05-01T02:19:53.670Z,100.00
2023-05-01T02:22:23.133Z,100.00
2023-05-01T02:24:50.552Z,100.00
2023-05-01T02:27:23.636Z,100.00
2023-05-01T02:29:54.617Z,100.00
2023-05-01T02:32:22.912Z,100.00
2023-05-01T02:34:50.323Z,100.00
2023-05-01T02:37:17.969Z,100.00
2023-05-01T02:39:46.762Z,100.00
2023-05-01T02:42:16.858Z,100.00
2023-05-01T02:44:51.391Z,100.00
2023-05-01T02:47:22.638Z,100.00
2023-05-01T02:49:52.076Z,100.00
2023-05-01T02:52:20.159Z,100.00
2023-05-01T02:54:50.849Z,100.00
2023-05-01T02:57:20.570Z,100.00
2023-05-01T02:59:47.968Z,100.00
2023-05-01T03:02:16.216Z,100.00
2023-05-01T03:04:44.263Z,100.00
2023-05-01T03:07:11.577Z,100.00
2023-05-01T03:09:38.819Z,100.00
2023-05-01T03:12:06.281Z,100.00
2023-05-01T03:14:33.767Z,100.00
2023-05-01T03:17:01.187Z,100.00
2023-05-01T03:19:28.506Z,100.00
2023-05-01T03:21:55.748Z,100.00
2023-05-01T03:24:22.885Z,100.00
2023-05-01T03:26:49.981Z,100.00
2023-05-01T03:29:17.244Z,100.00
2023-05-01T03:31:44.601Z,100.00
2023-05-01T03:34:11.965Z,100.00
2023-05-01T03:36:39.293Z,100.00
2023-05-01T03:39:08.893Z,100.00
2023-05-01T03:41:54.692Z,100.00
2023-05-01T03:44:24.992Z,100.00
2023-05-01T03:46:52.220Z,100.00
2023-05-01T03:49:29.162Z,100.00
2023-05-01T03:51:56.971Z,100.00
2023-05-01T03:54:24.871Z,100.00
2023-05-01T03:56:58.963Z,100.00
2023-05-01T03:59:26.254Z,100.00
2023-05-01T04:01:53.578Z,100.00
2023-05-01T04:04:21.459Z,100.00
2023-05-01T04:06:55.510Z,100.00
2023-05-01T04:09:22.740Z,100.00
2023-05-01T04:11:49.828Z,100.00
2023-05-01T04:14:17.064Z,100.00
2023-05-01T04:16:44.974Z,100.00
2023-05-01T04:19:12.045Z,100.00
2023-05-01T04:21:42.783Z,100.00
2023-05-01T04:24:09.933Z,100.00
2023-05-01T04:26:37.149Z,100.00
2023-05-01T04:29:05.053Z,100.00
2023-05-01T04:31:32.165Z,100.00
2023-05-01T04:34:01.979Z,100.00
2023-05-01T04:36:29.990Z,100.00
2023-05-01T04:38:57.607Z,100.00
2023-05-01T04:41:24.869Z,100.00
2023-05-01T04:43:52.837Z,100.00
2023-05-01T04:46:20.046Z,100.00
2023-05-01T04:48:47.765Z,100.00
2023-05-01T04:51:14.861Z,100.00
2023-05-01T04:53:42.184Z,100.00
2023-05-01T04:56:19.019Z,100.00
2023-05-01T04:58:47.569Z,100.00
2023-05-01T05:01:18.534Z,100.00
2023-05-01T05:03:48.975Z,100.00
2023-05-01T05:06:20.404Z,100.00
2023-05-01T05:08:47.544Z,100.00
2023-05-01T05:11:15.403Z,100.00
2023-05-01T05:13:49.705Z,100.00
2023-05-01T05:16:17.781Z,100.00
2023-05-01T05:18:44.976Z,100.00
2023-05-01T05:21:12.241Z,100.00
2023-05-01T05:23:44.773Z,100.00
2023-05-01T05:26:12.108Z,100.00
2023-05-01T05:28:39.530Z,100.00
2023-05-01T05:31:07.815Z,100.00
2023-05-01T05:33:35.571Z,100.00
2023-05-01T05:36:03.421Z,100.00
2023-05-01T05:38:36.102Z,100.00
2023-05-01T05:41:04.913Z,100.00
2023-05-01T05:43:32.701Z,100.00
2023-05-01T05:46:00.301Z,100.00
2023-05-01T05:48:28.449Z,100.00
2023-05-01T05:50:56.413Z,100.00
2023-05-01T05:53:25.870Z,100.00
2023-05-01T05:55:53.944Z,100.00
2023-05-01T05:58:21.640Z,100.00
2023-05-01T06:00:50.709Z,100.00
2023-05-01T06:03:18.555Z,100.00
2023-05-01T06:05:46.272Z,100.00
2023-05-01T06:08:14.732Z,100.00
2023-05-01T06:10:44.038Z,100.00
2023-05-01T06:13:13.982Z,100.00
2023-05-01T06:15:45.634Z,100.00
2023-05-01T06:18:13.457Z,100.00
2023-05-01T06:20:40.785Z,100.00
2023-05-01T06:23:09.839Z,100.00
2023-05-01T06:25:51.850Z,100.00
2023-05-01T06:28:19.899Z,100.00
2023-05-01T06:30:48.084Z,100.00
2023-05-01T06:33:17.339Z,100.00
2023-05-01T06:35:48.936Z,100.00
2023-05-01T06:38:16.614Z,100.00
2023-05-01T06:40:47.495Z,100.00
2023-05-01T06:43:16.764Z,100.00
2023-05-01T06:45:44.188Z,100.00
2023-05-01T06:48:11.891Z,99.81
2023-05-01T06:50:39.126Z,98.25
2023-05-01T06:53:06.208Z,97.86
2023-05-01T06:55:36.218Z,95.77
2023-05-01T06:58:12.733Z,95.68
2023-05-01T07:00:49.553Z,95.65
2023-05-01T07:03:16.750Z,95.89
2023-05-01T07:05:43.929Z,95.15
2023-05-01T07:08:11.471Z,94.72
2023-05-01T07:10:40.554Z,92.84
2023-05-01T07:13:09.770Z,91.58
2023-05-01T07:15:37.554Z,91.85
2023-05-01T07:18:06.458Z,90.62
2023-05-01T07:20:35.006Z,91.27
2023-05-01T07:23:02.216Z,91.07
2023-05-01T07:25:30.252Z,90.27
2023-05-01T07:27:57.465Z,88.25
2023-05-01T07:30:24.867Z,86.60
2023-05-01T07:32:52.031Z,86.58
2023-05-01T07:35:22.106Z,81.37
2023-05-01T07:37:51.980Z,81.84
2023-05-01T07:40:19.418Z,80.49
2023-05-01T07:42:54.427Z,78.98
2023-05-01T07:45:21.964Z,80.16
2023-05-01T07:47:50.240Z,79.18
2023-05-01T07:50:17.503Z,76.57
2023-05-01T07:52:44.938Z,82.06
2023-05-01T07:55:12.155Z,79.78
2023-05-01T07:57:42.250Z,83.13
2023-05-01T08:00:10.055Z,75.01
2023-05-01T08:02:43.795Z,71.23
2023-05-01T08:05:16.623Z,69.34
2023-05-01T08:07:43.851Z,68.85
2023-05-01T08:10:11.332Z,71.53
2023-05-01T08:12:38.700Z,63.98
2023-05-01T08:15:07.675Z,66.41
2023-05-01T08:17:38.203Z,69.85
2023-05-01T08:20:06.188Z,66.82
2023-05-01T08:22:36.099Z,62.56
2023-05-01T08:25:03.249Z,75.76
2023-05-01T08:27:30.750Z,66.46
2023-05-01T08:29:58.222Z,65.66
2023-05-01T08:32:25.880Z,64.10
2023-05-01T08:34:53.183Z,62.33
2023-05-01T08:37:20.355Z,64.30
2023-05-01T08:39:47.444Z,62.65
2023-05-01T08:42:14.645Z,67.99
2023-05-01T08:44:42.682Z,65.42
2023-05-01T08:47:22.323Z,59.61
2023-05-01T08:49:52.848Z,57.83
2023-05-01T08:52:22.552Z,57.48
2023-05-01T08:54:57.211Z,61.86
2023-05-01T08:57:26.198Z,60.67
2023-05-01T08:59:56.773Z,58.55
2023-05-01T09:02:25.121Z,60.96
2023-05-01T09:04:53.535Z,60.58
2023-05-01T09:07:20.708Z,56.71
2023-05-01T09:09:47.847Z,63.13
2023-05-01T09:12:26.681Z,58.43
2023-05-01T09:14:55.323Z,56.47
2023-05-01T09:17:24.291Z,59.86
2023-05-01T09:19:52.474Z,54.90
2023-05-01T09:22:20.606Z,55.89
2023-05-01T09:24:47.720Z,57.49
2023-05-01T09:27:15.470Z,59.40
2023-05-01T09:29:42.553Z,57.39
2023-05-01T09:32:19.578Z,54.31
2023-05-01T09:34:48.696Z,58.89
2023-05-01T09:37:30.309Z,58.73
2023-05-01T09:40:11.939Z,55.90
2023-05-01T09:42:52.416Z,52.30
2023-05-01T09:45:22.224Z,50.87
2023-05-01T09:47:50.323Z,47.63
2023-05-01T09:50:32.444Z,48.25
2023-05-01T09:53:02.075Z,53.62
2023-05-01T09:55:29.358Z,55.98
2023-05-01T09:57:56.860Z,54.82
2023-05-01T10:00:24.058Z,54.91
2023-05-01T10:02:52.597Z,52.68
2023-05-01T10:05:20.172Z,56.73
2023-05-01T10:08:03.146Z,50.31
2023-05-01T10:10:30.702Z,52.15
2023-05-01T10:13:19.419Z,50.95
2023-05-01T10:15:50.483Z,51.57
2023-05-01T10:18:19.094Z,49.99
2023-05-01T10:20:46.773Z,49.15
2023-05-01T10:23:14.601Z,49.48
2023-05-01T10:25:43.052Z,47.32
2023-05-01T10:28:12.184Z,47.94
2023-05-01T10:30:41.544Z,48.30
2023-05-01T10:33:08.832Z,45.58
2023-05-01T10:35:39.600Z,45.90
2023-05-01T10:38:09.870Z,47.22
2023-05-01T10:40:39.996Z,45.72
2023-05-01T10:43:26.678Z,50.27
2023-05-01T10:45:55.992Z,46.80
2023-05-01T10:48:56.508Z,44.77
2023-05-01T10:51:27.872Z,47.35
2023-05-01T10:54:22.806Z,44.95
2023-05-01T10:56:50.526Z,48.83
2023-05-01T10:59:18.088Z,46.17
2023-05-01T11:01:48.694Z,46.59
2023-05-01T11:04:27.883Z,46.12
2023-05-01T11:06:58.186Z,46.38
2023-05-01T11:09:42.725Z,44.24
2023-05-01T11:12:12.654Z,40.14
2023-05-01T11:14:58.293Z,44.29
2023-05-01T11:17:43.886Z,42.01
2023-05-01T11:20:37.201Z,45.73
2023-05-01T11:23:04.726Z,44.95
2023-05-01T11:25:36.197Z,46.55
2023-05-01T11:28:07.283Z,44.14
2023-05-01T11:30:39.075Z,40.70
2023-05-01T11:33:10.200Z,44.42
2023-05-01T11:35:39.385Z,42.21
2023-05-01T11:38:06.466Z,43.83
2023-05-01T11:40:35.264Z,41.50
2023-05-01T11:43:10.402Z,42.65
2023-05-01T11:45:38.225Z,41.91
2023-05-01T11:48:05.711Z,40.66
2023-05-01T11:50:34.487Z,40.73
2023-05-01T11:53:02.399Z,37.98
2023-05-01T11:55:33.659Z,39.10
2023-05-01T11:58:02.589Z,36.53
2023-05-01T12:00:34.078Z,38.07
2023-05-01T12:03:04.395Z,36.82
2023-05-01T12:05:33.419Z,36.54
2023-05-01T12:08:11.759Z,37.82
2023-05-01T12:10:41.198Z,38.69
2023-05-01T12:13:10.081Z,36.40
2023-05-01T12:15:42.569Z,38.66
2023-05-01T12:18:10.134Z,38.62
2023-05-01T12:20:41.678Z,36.16
2023-05-01T12:23:11.815Z,35.42
2023-05-01T12:25:41.103Z,38.68
2023-05-01T12:28:11.317Z,37.95
2023-05-01T12:30:39.370Z,38.03
2023-05-01T12:33:24.239Z,35.09
2023-05-01T12:35:51.754Z,37.06
2023-05-01T12:38:21.030Z,33.85
2023-05-01T12:40:59.710Z,34.18
2023-05-01T12:43:37.508Z,34.74
2023-05-01T12:46:06.149Z,33.60
2023-05-01T12:48:34.520Z,34.84
2023-05-01T12:51:01.948Z,34.84
2023-05-01T12:53:29.979Z,37.99
2023-05-01T12:55:59.006Z,35.47
2023-05-01T12:58:37.265Z,40.51
2023-05-01T13:01:04.950Z,38.00
2023-05-01T13:03:34.032Z,39.72
2023-05-01T13:06:04.433Z,41.01
2023-05-01T13:08:38.017Z,32.73
2023-05-01T13:11:17.278Z,36.00
2023-05-01T13:13:45.833Z,42.71
2023-05-01T13:16:14.881Z,35.64
2023-05-01T13:18:53.708Z,43.41
2023-05-01T13:21:23.016Z,36.99
2023-05-01T13:23:59.067Z,36.70
2023-05-01T13:26:27.781Z,34.57
2023-05-01T13:28:55.701Z,33.86
2023-05-01T13:31:23.273Z,37.75
2023-05-01T13:33:52.455Z,39.26
2023-05-01T13:36:26.163Z,40.01
2023-05-01T13:38:57.154Z,38.89
2023-05-01T13:41:26.835Z,40.20
2023-05-01T13:43:56.451Z,36.75
2023-05-01T13:46:25.623Z,39.48
2023-05-01T13:48:53.667Z,36.92
2023-05-01T13:51:22.968Z,38.61
2023-05-01T13:53:51.443Z,35.82
2023-05-01T13:56:18.791Z,37.87
2023-05-01T13:58:46.893Z,40.38
2023-05-01T14:01:19.193Z,34.39
2023-05-01T14:03:48.133Z,34.60
2023-05-01T14:06:17.180Z,38.68
2023-05-01T14:08:46.603Z,37.10
2023-05-01T14:11:15.034Z,36.71
2023-05-01T14:13:44.312Z,36.71
2023-05-01T14:16:21.666Z,39.28
2023-05-01T14:18:49.025Z,35.47
2023-05-01T14:21:18.157Z,34.96
2023-05-01T14:23:46.432Z,38.34
2023-05-01T14:26:18.802Z,35.07
2023-05-01T14:28:48.552Z,40.28
2023-05-01T14:31:30.570Z,35.23
2023-05-01T14:34:07.472Z,37.62
2023-05-01T14:36:35.131Z,38.12
2023-05-01T14:39:04.304Z,43.71
2023-05-01T14:41:34.939Z,43.84
2023-05-01T14:44:03.984Z,44.92
2023-05-01T14:46:37.709Z,42.42
2023-05-01T14:49:05.172Z,43.48
2023-05-01T14:51:33.836Z,47.54
2023-05-01T14:54:01.751Z,44.46
2023-05-01T14:56:28.936Z,43.55
2023-05-01T14:58:56.167Z,43.02
2023-05-01T15:01:23.390Z,43.60
2023-05-01T15:03:50.847Z,45.49
2023-05-01T15:06:18.086Z,43.26
2023-05-01T15:08:45.983Z,44.32
2023-05-01T15:11:18.312Z,45.86
2023-05-01T15:13:46.398Z,45.80
2023-05-01T15:16:13.619Z,43.35
2023-05-01T15:18:40.896Z,45.40
2023-05-01T15:21:08.229Z,45.20
2023-05-01T15:23:37.256Z,42.43
2023-05-01T15:26:04.492Z,41.89
2023-05-01T15:28:32.494Z,42.38
2023-05-01T15:30:59.580Z,43.36
2023-05-01T15:33:26.757Z,42.66
2023-05-01T15:35:54.298Z,42.25
2023-05-01T15:38:22.025Z,44.53
2023-05-01T15:40:50.354Z,42.09
2023-05-01T15:43:17.545Z,44.28
2023-05-01T15:45:45.124Z,42.44
2023-05-01T15:48:12.407Z,41.77
2023-05-01T15:50:39.643Z,42.87
2023-05-01T15:53:06.732Z,44.44
2023-05-01T15:55:35.033Z,43.20
2023-05-01T15:58:03.097Z,43.10
2023-05-01T16:00:30.307Z,43.71
2023-05-01T16:02:57.554Z,44.71
2023-05-01T16:05:25.173Z,45.21
2023-05-01T16:07:55.746Z,45.56
2023-05-01T16:10:23.591Z,48.07
2023-05-01T16:12:53.756Z,47.79
2023-05-01T16:15:22.368Z,53.14
2023-05-01T16:17:51.648Z,53.13
2023-05-01T16:20:19.193Z,54.43
2023-05-01T16:22:46.511Z,53.26
2023-05-01T16:25:14.482Z,55.39
2023-05-01T16:27:44.688Z,53.28
2023-05-01T16:30:16.386Z,62.72
2023-05-01T16:32:45.171Z,56.94
2023-05-01T16:35:18.068Z,61.84
2023-05-01T16:37:45.367Z,56.02
2023-05-01T16:40:17.212Z,55.65
2023-05-01T16:42:54.842Z,61.49
2023-05-01T16:45:22.204Z,61.27
2023-05-01T16:47:49.489Z,61.21
2023-05-01T16:50:25.318Z,61.35
2023-05-01T16:52:55.182Z,58.74
2023-05-01T16:55:23.657Z,59.13
2023-05-01T16:57:51.314Z,59.02
2023-05-01T17:00:18.953Z,59.79
2023-05-01T17:02:49.368Z,60.96
2023-05-01T17:05:16.929Z,64.35
2023-05-01T17:07:44.035Z,62.10
2023-05-01T17:10:11.829Z,65.47
2023-05-01T17:12:39.049Z,64.31
2023-05-01T17:15:07.080Z,66.95
2023-05-01T17:17:34.395Z,65.31
2023-05-01T17:20:01.932Z,66.70
2023-05-01T17:22:29.534Z,67.88
2023-05-01T17:24:57.602Z,71.35
2023-05-01T17:27:24.893Z,73.46
2023-05-01T17:29:52.163Z,76.40
2023-05-01T17:32:29.566Z,76.25
2023-05-01T17:35:04.989Z,77.96
2023-05-01T17:37:32.578Z,80.63
2023-05-01T17:39:59.996Z,78.99
2023-05-01T17:42:27.536Z,80.23
2023-05-01T17:44:54.631Z,80.92
2023-05-01T17:47:23.754Z,81.25
2023-05-01T17:49:53.039Z,82.98
2023-05-01T17:52:20.336Z,82.64
2023-05-01T17:54:47.540Z,95.28
2023-05-01T17:57:14.839Z,95.12
2023-05-01T17:59:42.076Z,87.79
2023-05-01T18:02:09.349Z,83.01
2023-05-01T18:04:38.757Z,83.80
2023-05-01T18:07:06.992Z,84.48
2023-05-01T18:09:34.950Z,85.22
2023-05-01T18:12:02.571Z,87.88
2023-05-01T18:14:30.446Z,86.62
2023-05-01T18:16:57.758Z,86.92
2023-05-01T18:19:25.040Z,85.75
2023-05-01T18:21:52.195Z,85.87
2023-05-01T18:24:19.328Z,88.30
2023-05-01T18:26:46.554Z,86.90
2023-05-01T18:29:13.904Z,88.38
2023-05-01T18:31:41.104Z,88.50
2023-05-01T18:34:10.422Z,90.97
2023-05-01T18:36:37.673Z,91.24
2023-05-01T18:39:04.897Z,89.86
2023-05-01T18:41:31.969Z,90.68
2023-05-01T18:44:01.633Z,94.31
2023-05-01T18:46:28.867Z,89.50
2023-05-01T18:48:56.218Z,89.97
2023-05-01T18:51:23.728Z,90.97
2023-05-01T18:53:50.908Z,94.18
2023-05-01T18:56:19.078Z,90.00
2023-05-01T18:58:46.222Z,96.47
2023-05-01T19:01:13.398Z,95.04
2023-05-01T19:03:40.784Z,97.07
2023-05-01T19:06:10.807Z,95.34
2023-05-01T19:08:38.208Z,95.24
2023-05-01T19:11:06.275Z,99.73
2023-05-01T19:13:34.153Z,96.72
2023-05-01T19:16:01.382Z,95.81
2023-05-01T19:18:28.846Z,96.05
2023-05-01T19:20:56.268Z,96.97
2023-05-01T19:23:23.683Z,97.65
2023-05-01T19:25:51.388Z,100.00
2023-05-01T19:28:18.590Z,100.00
2023-05-01T19:30:46.074Z,99.30
2023-05-01T19:33:13.472Z,99.62
2023-05-01T19:35:41.200Z,99.08
2023-05-01T19:38:08.348Z,100.00
2023-05-01T19:40:36.945Z,100.00
2023-05-01T19:43:04.120Z,100.00
2023-05-01T19:45:31.692Z,100.00
2023-05-01T19:47:59.196Z,100.00
2023-05-01T19:50:26.752Z,100.00
2023-05-01T19:52:53.820Z,100.00
2023-05-01T19:55:21.252Z,100.00
2023-05-01T19:57:48.408Z,100.00
2023-05-01T20:00:16.201Z,100.00
2023-05-01T20:02:43.468Z,100.00
2023-05-01T20:05:11.351Z,100.00
2023-05-01T20:07:38.466Z,100.00
2023-05-01T20:10:06.479Z,100.00
2023-05-01T20:12:34.340Z,100.00
2023-05-01T20:15:01.902Z,100.00
2023-05-01T20:17:29.700Z,100.00
2023-05-01T20:19:57.914Z,100.00
2023-05-01T20:22:31.532Z,100.00
2023-05-01T20:24:59.189Z,100.00
2023-05-01T20:27:26.736Z,100.00
2023-05-01T20:29:54.492Z,100.00
2023-05-01T20:32:21.790Z,100.00
2023-05-01T20:34:49.126Z,100.00
2023-05-01T20:37:16.781Z,100.00
2023-05-01T20:39:44.548Z,100.00
2023-05-01T20:42:11.691Z,100.00
2023-05-01T20:44:40.168Z,100.00
2023-05-01T20:47:07.509Z,100.00
2023-05-01T20:49:35.242Z,100.00
2023-05-01T20:52:02.660Z,100.00
2023-05-01T20:54:32.842Z,100.00
2023-05-01T20:57:00.602Z,100.00
2023-05-01T20:59:27.865Z,100.00
2023-05-01T21:01:55.964Z,100.00
2023-05-01T21:04:24.056Z,100.00
2023-05-01T21:06:52.807Z,100.00
2023-05-01T21:09:20.022Z,100.00
2023-05-01T21:11:47.559Z,100.00
2023-05-01T21:14:14.854Z,100.00
2023-05-01T21:16:43.177Z,100.00
2023-05-01T21:19:12.335Z,100.00
2023-05-01T21:21:39.638Z,100.00
2023-05-01T21:24:09.802Z,100.00
2023-05-01T21:26:37.770Z,100.00
2023-05-01T21:29:04.973Z,100.00
2023-05-01T21:31:33.357Z,100.00
2023-05-01T21:34:05.272Z,100.00
2023-05-01T21:36:32.840Z,100.00
2023-05-01T21:39:03.133Z,100.00
2023-05-01T21:41:30.910Z,100.00
2023-05-01T21:43:58.031Z,100.00
2023-05-01T21:46:27.574Z,100.00
2023-05-01T21:48:54.742Z,100.00
2023-05-01T21:51:33.440Z,100.00
2023-05-01T21:54:01.902Z,100.00
2023-05-01T21:56:29.623Z,100.00
2023-05-01T21:59:02.305Z,100.00
2023-05-01T22:01:30.293Z,100.00
2023-05-01T22:03:57.557Z,100.00
2023-05-01T22:06:25.844Z,100.00
2023-05-01T22:08:53.774Z,100.00
2023-05-01T22:11:24.719Z,100.00
2023-05-01T22:13:51.992Z,100.00
2023-05-01T22:16:19.457Z,100.00
2023-05-01T22:18:49.380Z,100.00
2023-05-01T22:21:17.342Z,100.00
2023-05-01T22:23:44.521Z,100.00
2023-05-01T22:26:11.607Z,100.00
2023-05-01T22:28:38.718Z,100.00
2023-05-01T22:31:06.059Z,100.00
2023-05-01T22:33:33.428Z,100.00
2023-05-01T22:36:00.607Z,100.00
2023-05-01T22:38:27.681Z,100.00
2023-05-01T22:40:54.783Z,100.00
2023-05-01T22:43:22.107Z,100.00
2023-05-01T22:45:49.249Z,100.00
2023-05-01T22:48:16.662Z,100.00
2023-05-01T22:50:44.356Z,100.00
2023-05-01T22:53:11.899Z,100.00
2023-05-01T22:55:39.537Z,100.00
2023-05-01T22:58:07.061Z,100.00
2023-05-01T23:00:34.120Z,100.00
2023-05-01T23:03:01.630Z,100.00
2023-05-01T23:05:29.622Z,100.00
2023-05-01T23:07:56.672Z,100.00
2023-05-01T23:10:27.197Z,100.00
2023-05-01T23:12:54.352Z,100.00
2023-05-01T23:15:26.606Z,100.00
2023-05-01T23:17:54.034Z,100.00
2023-05-01T23:20:23.802Z,100.00
2023-05-01T23:22:51.794Z,100.00
2023-05-01T23:25:25.869Z,100.00
2023-05-01T23:27:55.646Z,100.00
2023-05-01T23:30:23.160Z,100.00
2023-05-01T23:32:50.504Z,100.00
2023-05-01T23:35:24.091Z,100.00
2023-05-01T23:37:53.165Z,100.00
2023-05-01T23:40:20.292Z,100.00
2023-05-01T23:42:47.756Z,100.00
2023-05-01T23:45:15.441Z,100.00
2023-05-01T23:47:42.807Z,100.00
2023-05-01T23:50:10.399Z,100.00
2023-05-01T23:52:37.580Z,100.00
2023-05-01T23:55:04.984Z,100.00
2023-05-01T23:57:32.168Z,100.00
2023-05-01T23:59:59.504Z,100.00
